sensor_id;sensor_type;location;lat;lon;timestamp;temperature;humidity
69677;DHT22;56914;51.058;9.326;2023-02-11T04:10:45;7.80;64.60
69677;DHT22;56914;51.058;9.326;2023-02-11T04:11:48;7.80;64.50
69677;DHT22;56914;51.058;9.326;2023-02-11T04:12:51;7.90;64.50
69677;DHT22;56914;51.058;9.326;2023-02-11T04:13:54;7.90;64.40
69677;DHT22;56914;51.058;9.326;2023-02-11T04:14:56;7.90;64.30
69677;DHT22;56914;51.058;9.326;2023-02-11T04:15:59;7.90;64.40
69677;DHT22;56914;51.058;9.326;2023-02-11T04:17:03;7.90;64.30
69677;DHT22;56914;51.058;9.326;2023-02-11T04:18:06;8.00;64.30
69677;DHT22;56914;51.058;9.326;2023-02-11T04:19:08;8.00;64.10
69677;DHT22;56914;51.058;9.326;2023-02-11T04:20:12;8.00;64.20
69677;DHT22;56914;51.058;9.326;2023-02-11T04:21:14;8.10;64.10
69677;DHT22;56914;51.058;9.326;2023-02-11T04:22:17;8.10;64.00
69677;DHT22;56914;51.058;9.326;2023-02-11T04:23:19;8.10;63.80
69677;DHT22;56914;51.058;9.326;2023-02-11T04:24:22;8.10;63.60
69677;DHT22;56914;51.058;9.326;2023-02-11T04:25:24;8.10;64.20
69677;DHT22;56914;51.058;9.326;2023-02-11T04:26:29;8.10;63.70
69677;DHT22;56914;51.058;9.326;2023-02-11T04:27:31;8.20;63.80
69677;DHT22;56914;51.058;9.326;2023-02-11T04:28:35;8.20;63.70
69677;DHT22;56914;51.058;9.326;2023-02-11T04:29:37;8.20;63.60
69677;DHT22;56914;51.058;9.326;2023-02-11T04:30:40;8.20;63.60
69677;DHT22;56914;51.058;9.326;2023-02-11T04:31:42;8.20;63.60
69677;DHT22;56914;51.058;9.326;2023-02-11T04:32:46;8.20;63.60
69677;DHT22;56914;51.058;9.326;2023-02-11T04:33:48;8.20;63.50
69677;DHT22;56914;51.058;9.326;2023-02-11T04:34:51;8.20;63.50
69677;DHT22;56914;51.058;9.326;2023-02-11T04:35:55;8.20;63.50
69677;DHT22;56914;51.058;9.326;2023-02-11T04:36:58;8.20;63.40
69677;DHT22;56914;51.058;9.326;2023-02-11T04:38:01;8.30;63.40
69677;DHT22;56914;51.058;9.326;2023-02-11T04:39:04;8.30;63.30
69677;DHT22;56914;51.058;9.326;2023-02-11T04:40:08;8.30;63.40
69677;DHT22;56914;51.058;9.326;2023-02-11T04:41:10;8.30;63.40
69677;DHT22;56914;51.058;9.326;2023-02-11T04:42:15;8.30;63.40
69677;DHT22;56914;51.058;9.326;2023-02-11T04:43:17;8.30;63.30
69677;DHT22;56914;51.058;9.326;2023-02-11T04:44:20;8.30;63.30
69677;DHT22;56914;51.058;9.326;2023-02-11T04:45:22;8.30;63.30
69677;DHT22;56914;51.058;9.326;2023-02-11T04:46:25;8.30;63.30
69677;DHT22;56914;51.058;9.326;2023-02-11T04:47:30;8.30;63.30
69677;DHT22;56914;51.058;9.326;2023-02-11T04:48:34;8.30;63.30
69677;DHT22;56914;51.058;9.326;2023-02-11T04:49:36;8.30;63.30
69677;DHT22;56914;51.058;9.326;2023-02-11T04:50:40;8.30;63.30
69677;DHT22;56914;51.058;9.326;2023-02-11T04:51:43;8.30;63.50
69677;DHT22;56914;51.058;9.326;2023-02-11T04:52:50;8.30;63.50
69677;DHT22;56914;51.058;9.326;2023-02-11T04:53:52;8.30;63.40
69677;DHT22;56914;51.058;9.326;2023-02-11T04:54:55;8.30;63.40
69677;DHT22;56914;51.058;9.326;2023-02-11T04:55:57;8.30;63.30
69677;DHT22;56914;51.058;9.326;2023-02-11T04:57:01;8.30;63.20
69677;DHT22;56914;51.058;9.326;2023-02-11T04:58:04;8.30;63.20
69677;DHT22;56914;51.058;9.326;2023-02-11T04:59:07;8.30;63.20
69677;DHT22;56914;51.058;9.326;2023-02-11T05:00:10;8.30;63.20
69677;DHT22;56914;51.058;9.326;2023-02-11T05:01:14;8.40;63.30
69677;DHT22;56914;51.058;9.326;2023-02-11T05:02:17;8.40;63.10
69677;DHT22;56914;51.058;9.326;2023-02-11T05:03:20;8.30;63.10
69677;DHT22;56914;51.058;9.326;2023-02-11T05:04:22;8.30;63.10
69677;DHT22;56914;51.058;9.326;2023-02-11T05:05:26;8.30;63.10
69677;DHT22;56914;51.058;9.326;2023-02-11T05:06:28;8.40;63.20
69677;DHT22;56914;51.058;9.326;2023-02-11T05:07:32;8.40;63.60
69677;DHT22;56914;51.058;9.326;2023-02-11T05:08:34;8.40;63.20
69677;DHT22;56914;51.058;9.326;2023-02-11T05:09:37;8.40;63.10
69677;DHT22;56914;51.058;9.326;2023-02-11T05:10:39;8.40;63.00
69677;DHT22;56914;51.058;9.326;2023-02-11T05:11:47;8.40;63.00
69677;DHT22;56914;51.058;9.326;2023-02-11T05:12:49;8.40;62.90
69677;DHT22;56914;51.058;9.326;2023-02-11T05:13:57;8.40;62.90
69677;DHT22;56914;51.058;9.326;2023-02-11T05:14:59;8.40;62.90
69677;DHT22;56914;51.058;9.326;2023-02-11T05:16:03;8.40;63.00
69677;DHT22;56914;51.058;9.326;2023-02-11T05:17:06;8.40;63.00
69677;DHT22;56914;51.058;9.326;2023-02-11T05:18:09;8.40;63.00
69677;DHT22;56914;51.058;9.326;2023-02-11T05:19:11;8.40;63.00
69677;DHT22;56914;51.058;9.326;2023-02-11T05:20:14;8.40;63.00
69677;DHT22;56914;51.058;9.326;2023-02-11T05:21:18;8.40;63.00
69677;DHT22;56914;51.058;9.326;2023-02-11T05:22:21;8.50;63.50
69677;DHT22;56914;51.058;9.326;2023-02-11T05:23:23;8.50;63.00
69677;DHT22;56914;51.058;9.326;2023-02-11T05:24:26;8.50;62.90
69677;DHT22;56914;51.058;9.326;2023-02-11T05:25:29;8.40;62.90
69677;DHT22;56914;51.058;9.326;2023-02-11T05:26:32;8.50;62.90
69677;DHT22;56914;51.058;9.326;2023-02-11T05:27:34;8.50;62.90
69677;DHT22;56914;51.058;9.326;2023-02-11T05:28:38;8.50;62.80
69677;DHT22;56914;51.058;9.326;2023-02-11T05:29:41;8.50;62.80
69677;DHT22;56914;51.058;9.326;2023-02-11T05:30:45;8.50;62.80
69677;DHT22;56914;51.058;9.326;2023-02-11T05:31:47;8.50;62.70
69677;DHT22;56914;51.058;9.326;2023-02-11T05:32:51;8.50;62.90
69677;DHT22;56914;51.058;9.326;2023-02-11T05:33:53;8.50;62.90
69677;DHT22;56914;51.058;9.326;2023-02-11T05:34:56;8.50;62.90
69677;DHT22;56914;51.058;9.326;2023-02-11T05:35:59;8.50;62.90
69677;DHT22;56914;51.058;9.326;2023-02-11T05:37:02;8.40;63.00
69677;DHT22;56914;51.058;9.326;2023-02-11T05:38:05;8.40;62.90
69677;DHT22;56914;51.058;9.326;2023-02-11T05:39:08;8.40;63.50
69677;DHT22;56914;51.058;9.326;2023-02-11T05:40:10;8.40;63.10
69677;DHT22;56914;51.058;9.326;2023-02-11T05:41:14;8.40;63.20
69677;DHT22;56914;51.058;9.326;2023-02-11T05:42:16;8.30;63.20
69677;DHT22;56914;51.058;9.326;2023-02-11T05:43:19;8.30;63.20
69677;DHT22;56914;51.058;9.326;2023-02-11T05:44:21;8.30;63.30
69677;DHT22;56914;51.058;9.326;2023-02-11T05:45:26;8.40;63.30
69677;DHT22;56914;51.058;9.326;2023-02-11T05:46:28;8.40;63.20
69677;DHT22;56914;51.058;9.326;2023-02-11T05:47:32;8.40;63.20
69677;DHT22;56914;51.058;9.326;2023-02-11T05:48:34;8.40;63.20
69677;DHT22;56914;51.058;9.326;2023-02-11T05:49:37;8.40;63.20
69677;DHT22;56914;51.058;9.326;2023-02-11T05:50:40;8.40;63.00
69677;DHT22;56914;51.058;9.326;2023-02-11T05:51:43;8.40;63.10
69677;DHT22;56914;51.058;9.326;2023-02-11T05:52:45;8.40;63.20
69677;DHT22;56914;51.058;9.326;2023-02-11T05:53:49;8.40;63.20
69677;DHT22;56914;51.058;9.326;2023-02-11T05:54:51;8.40;63.30
69677;DHT22;56914;51.058;9.326;2023-02-11T05:55:54;8.40;63.30
69677;DHT22;56914;51.058;9.326;2023-02-11T05:56:57;8.40;63.30
69677;DHT22;56914;51.058;9.326;2023-02-11T05:58:00;8.40;63.30
69677;DHT22;56914;51.058;9.326;2023-02-11T05:59:02;8.40;63.80
69677;DHT22;56914;51.058;9.326;2023-02-11T06:00:06;8.40;63.30
69677;DHT22;56914;51.058;9.326;2023-02-11T06:01:10;8.40;63.30
69677;DHT22;56914;51.058;9.326;2023-02-11T06:02:13;8.40;63.40
69677;DHT22;56914;51.058;9.326;2023-02-11T06:03:16;8.40;63.40
69677;DHT22;56914;51.058;9.326;2023-02-11T06:04:19;8.40;63.40
69677;DHT22;56914;51.058;9.326;2023-02-11T06:05:21;8.40;63.50
69677;DHT22;56914;51.058;9.326;2023-02-11T06:06:25;8.40;63.40
69677;DHT22;56914;51.058;9.326;2023-02-11T06:07:27;8.40;63.40
69677;DHT22;56914;51.058;9.326;2023-02-11T06:08:30;8.40;63.30
69677;DHT22;56914;51.058;9.326;2023-02-11T06:09:32;8.40;63.30
69677;DHT22;56914;51.058;9.326;2023-02-11T06:10:36;8.50;63.30
69677;DHT22;56914;51.058;9.326;2023-02-11T06:11:38;8.40;63.30
69677;DHT22;56914;51.058;9.326;2023-02-11T06:12:41;8.40;63.30
69677;DHT22;56914;51.058;9.326;2023-02-11T06:13:44;8.40;63.30
69677;DHT22;56914;51.058;9.326;2023-02-11T06:14:47;8.40;63.30
69677;DHT22;56914;51.058;9.326;2023-02-11T06:15:55;8.40;63.30
69677;DHT22;56914;51.058;9.326;2023-02-11T06:17:01;8.50;63.30
69677;DHT22;56914;51.058;9.326;2023-02-11T06:18:03;8.40;63.30
69677;DHT22;56914;51.058;9.326;2023-02-11T06:19:06;8.40;63.30
69677;DHT22;56914;51.058;9.326;2023-02-11T06:20:10;8.40;63.30
69677;DHT22;56914;51.058;9.326;2023-02-11T06:21:13;8.40;63.40
69677;DHT22;56914;51.058;9.326;2023-02-11T06:22:15;8.40;63.30
69677;DHT22;56914;51.058;9.326;2023-02-11T06:23:18;8.50;63.20
69677;DHT22;56914;51.058;9.326;2023-02-11T06:24:21;8.50;63.10
69677;DHT22;56914;51.058;9.326;2023-02-11T06:25:44;8.50;63.10
69677;DHT22;56914;51.058;9.326;2023-02-11T06:26:47;8.50;63.00
69677;DHT22;56914;51.058;9.326;2023-02-11T06:27:50;8.60;63.00
69677;DHT22;56914;51.058;9.326;2023-02-11T06:28:53;8.50;63.00
69677;DHT22;56914;51.058;9.326;2023-02-11T06:29:56;8.50;63.00
69677;DHT22;56914;51.058;9.326;2023-02-11T06:31:03;8.50;63.00
69677;DHT22;56914;51.058;9.326;2023-02-11T06:32:09;8.50;63.00
69677;DHT22;56914;51.058;9.326;2023-02-11T06:33:31;8.60;63.00
69677;DHT22;56914;51.058;9.326;2023-02-11T06:34:34;8.50;63.00
69677;DHT22;56914;51.058;9.326;2023-02-11T06:35:37;8.60;63.00
69677;DHT22;56914;51.058;9.326;2023-02-11T06:36:40;8.60;63.00
69677;DHT22;56914;51.058;9.326;2023-02-11T06:37:43;8.60;62.90
69677;DHT22;56914;51.058;9.326;2023-02-11T06:38:48;8.60;62.90
69677;DHT22;56914;51.058;9.326;2023-02-11T06:39:50;8.60;63.00
69677;DHT22;56914;51.058;9.326;2023-02-11T06:40:54;8.50;63.00
69677;DHT22;56914;51.058;9.326;2023-02-11T06:41:56;8.60;63.10
69677;DHT22;56914;51.058;9.326;2023-02-11T06:42:59;8.60;63.00
69677;DHT22;56914;51.058;9.326;2023-02-11T06:44:01;8.60;63.00
69677;DHT22;56914;51.058;9.326;2023-02-11T06:45:05;8.60;62.90
69677;DHT22;56914;51.058;9.326;2023-02-11T06:46:09;8.60;62.90
69677;DHT22;56914;51.058;9.326;2023-02-11T06:47:14;8.60;62.80
69677;DHT22;56914;51.058;9.326;2023-02-11T06:48:16;8.60;62.90
69677;DHT22;56914;51.058;9.326;2023-02-11T06:49:19;8.70;62.80
69677;DHT22;56914;51.058;9.326;2023-02-11T06:50:22;8.70;62.70
69677;DHT22;56914;51.058;9.326;2023-02-11T06:51:25;8.70;62.70
69677;DHT22;56914;51.058;9.326;2023-02-11T06:52:29;8.70;62.60
69677;DHT22;56914;51.058;9.326;2023-02-11T06:53:33;8.70;62.50
69677;DHT22;56914;51.058;9.326;2023-02-11T06:54:37;8.70;62.50
69677;DHT22;56914;51.058;9.326;2023-02-11T06:55:39;8.80;62.40
69677;DHT22;56914;51.058;9.326;2023-02-11T06:56:42;8.80;62.90
69677;DHT22;56914;51.058;9.326;2023-02-11T06:57:44;8.80;62.30
69677;DHT22;56914;51.058;9.326;2023-02-11T06:58:52;8.80;62.30
69677;DHT22;56914;51.058;9.326;2023-02-11T06:59:55;8.80;62.20
69677;DHT22;56914;51.058;9.326;2023-02-11T07:00:59;8.80;62.20
69677;DHT22;56914;51.058;9.326;2023-02-11T07:02:01;8.90;62.20
69677;DHT22;56914;51.058;9.326;2023-02-11T07:03:06;8.90;62.10
69677;DHT22;56914;51.058;9.326;2023-02-11T07:04:08;8.90;62.00
69677;DHT22;56914;51.058;9.326;2023-02-11T07:05:11;8.90;61.80
69677;DHT22;56914;51.058;9.326;2023-02-11T07:06:15;8.90;62.00
69677;DHT22;56914;51.058;9.326;2023-02-11T07:07:19;8.90;62.10
69677;DHT22;56914;51.058;9.326;2023-02-11T07:08:21;8.90;62.00
69677;DHT22;56914;51.058;9.326;2023-02-11T07:09:24;8.90;62.10
69677;DHT22;56914;51.058;9.326;2023-02-11T07:10:26;8.90;62.10
69677;DHT22;56914;51.058;9.326;2023-02-11T07:11:30;9.00;61.90
69677;DHT22;56914;51.058;9.326;2023-02-11T07:12:32;9.00;61.90
69677;DHT22;56914;51.058;9.326;2023-02-11T07:13:36;9.00;61.90
69677;DHT22;56914;51.058;9.326;2023-02-11T07:14:39;9.00;61.80
69677;DHT22;56914;51.058;9.326;2023-02-11T07:15:44;9.00;61.70
69677;DHT22;56914;51.058;9.326;2023-02-11T07:16:46;9.00;61.70
69677;DHT22;56914;51.058;9.326;2023-02-11T07:17:50;9.00;61.70
69677;DHT22;56914;51.058;9.326;2023-02-11T07:18:53;9.00;61.80
69677;DHT22;56914;51.058;9.326;2023-02-11T07:19:56;9.00;61.70
69677;DHT22;56914;51.058;9.326;2023-02-11T07:20:59;9.00;61.70
69677;DHT22;56914;51.058;9.326;2023-02-11T07:22:05;9.00;61.80
69677;DHT22;56914;51.058;9.326;2023-02-11T07:23:07;9.00;61.90
69677;DHT22;56914;51.058;9.326;2023-02-11T07:24:12;8.90;61.90
69677;DHT22;56914;51.058;9.326;2023-02-11T07:25:15;9.00;62.00
69677;DHT22;56914;51.058;9.326;2023-02-11T07:26:20;9.00;62.00
69677;DHT22;56914;51.058;9.326;2023-02-11T07:27:24;9.00;62.00
69677;DHT22;56914;51.058;9.326;2023-02-11T07:28:26;8.90;61.90
69677;DHT22;56914;51.058;9.326;2023-02-11T07:29:29;8.90;62.00
69677;DHT22;56914;51.058;9.326;2023-02-11T07:30:32;8.90;62.10
69677;DHT22;56914;51.058;9.326;2023-02-11T07:31:35;8.90;62.20
69677;DHT22;56914;51.058;9.326;2023-02-11T07:32:37;8.90;62.20
69677;DHT22;56914;51.058;9.326;2023-02-11T07:33:41;8.90;62.20
69677;DHT22;56914;51.058;9.326;2023-02-11T07:34:53;8.90;62.30
69677;DHT22;56914;51.058;9.326;2023-02-11T07:35:59;8.90;62.30
69677;DHT22;56914;51.058;9.326;2023-02-11T07:37:01;8.90;62.30
69677;DHT22;56914;51.058;9.326;2023-02-11T07:38:05;8.80;62.20
69677;DHT22;56914;51.058;9.326;2023-02-11T07:39:07;8.90;62.30
69677;DHT22;56914;51.058;9.326;2023-02-11T07:40:10;8.80;62.30
69677;DHT22;56914;51.058;9.326;2023-02-11T07:41:16;8.80;62.30
69677;DHT22;56914;51.058;9.326;2023-02-11T07:42:31;8.90;62.40
69677;DHT22;56914;51.058;9.326;2023-02-11T07:43:37;8.90;62.30
69677;DHT22;56914;51.058;9.326;2023-02-11T07:44:41;8.90;62.30
69677;DHT22;56914;51.058;9.326;2023-02-11T07:45:43;8.90;62.30
69677;DHT22;56914;51.058;9.326;2023-02-11T07:46:46;8.90;62.30
69677;DHT22;56914;51.058;9.326;2023-02-11T07:47:50;8.80;62.40
69677;DHT22;56914;51.058;9.326;2023-02-11T07:48:54;8.90;62.30
69677;DHT22;56914;51.058;9.326;2023-02-11T07:49:58;8.90;62.40
69677;DHT22;56914;51.058;9.326;2023-02-11T07:51:06;8.90;62.40
69677;DHT22;56914;51.058;9.326;2023-02-11T07:52:08;8.90;62.40
69677;DHT22;56914;51.058;9.326;2023-02-11T07:53:14;8.90;62.40
69677;DHT22;56914;51.058;9.326;2023-02-11T07:54:17;8.90;62.30
69677;DHT22;56914;51.058;9.326;2023-02-11T07:55:20;9.00;62.30
69677;DHT22;56914;51.058;9.326;2023-02-11T07:56:23;9.00;62.20
69677;DHT22;56914;51.058;9.326;2023-02-11T07:57:26;9.00;62.30
69677;DHT22;56914;51.058;9.326;2023-02-11T07:58:30;9.00;62.20
69677;DHT22;56914;51.058;9.326;2023-02-11T07:59:34;9.00;62.00
69677;DHT22;56914;51.058;9.326;2023-02-11T08:00:38;9.00;62.00
69677;DHT22;56914;51.058;9.326;2023-02-11T08:01:41;9.00;62.10
69677;DHT22;56914;51.058;9.326;2023-02-11T08:02:43;9.00;62.10
69677;DHT22;56914;51.058;9.326;2023-02-11T08:03:47;9.00;62.10
69677;DHT22;56914;51.058;9.326;2023-02-11T08:04:49;9.00;62.10
69677;DHT22;56914;51.058;9.326;2023-02-11T08:05:54;9.00;62.10
69677;DHT22;56914;51.058;9.326;2023-02-11T08:06:56;9.00;62.10
69677;DHT22;56914;51.058;9.326;2023-02-11T08:08:00;9.00;62.20
69677;DHT22;56914;51.058;9.326;2023-02-11T08:09:05;9.00;62.10
69677;DHT22;56914;51.058;9.326;2023-02-11T08:10:13;9.00;62.20
69677;DHT22;56914;51.058;9.326;2023-02-11T08:11:17;9.00;62.20
69677;DHT22;56914;51.058;9.326;2023-02-11T08:12:21;9.00;62.20
69677;DHT22;56914;51.058;9.326;2023-02-11T08:13:24;9.00;62.10
69677;DHT22;56914;51.058;9.326;2023-02-11T08:14:27;9.00;62.20
69677;DHT22;56914;51.058;9.326;2023-02-11T08:15:31;9.00;62.10
69677;DHT22;56914;51.058;9.326;2023-02-11T08:16:35;9.00;62.20
69677;DHT22;56914;51.058;9.326;2023-02-11T08:17:39;9.10;62.20
69677;DHT22;56914;51.058;9.326;2023-02-11T08:18:43;9.10;62.20
69677;DHT22;56914;51.058;9.326;2023-02-11T08:19:45;9.10;62.10
69677;DHT22;56914;51.058;9.326;2023-02-11T08:20:48;9.10;62.00
69677;DHT22;56914;51.058;9.326;2023-02-11T08:21:55;9.10;61.90
69677;DHT22;56914;51.058;9.326;2023-02-11T08:22:58;9.10;61.80
69677;DHT22;56914;51.058;9.326;2023-02-11T08:24:01;9.10;61.90
69677;DHT22;56914;51.058;9.326;2023-02-11T08:25:05;9.10;61.90
69677;DHT22;56914;51.058;9.326;2023-02-11T08:26:10;9.20;62.00
69677;DHT22;56914;51.058;9.326;2023-02-11T08:27:13;9.20;61.90
69677;DHT22;56914;51.058;9.326;2023-02-11T08:28:15;9.10;61.90
69677;DHT22;56914;51.058;9.326;2023-02-11T08:29:19;9.20;61.90
69677;DHT22;56914;51.058;9.326;2023-02-11T08:30:21;9.10;62.10
69677;DHT22;56914;51.058;9.326;2023-02-11T08:31:30;9.10;61.90
69677;DHT22;56914;51.058;9.326;2023-02-11T08:32:34;9.10;62.10
69677;DHT22;56914;51.058;9.326;2023-02-11T08:33:38;9.10;62.10
69677;DHT22;56914;51.058;9.326;2023-02-11T08:34:41;9.10;62.00
69677;DHT22;56914;51.058;9.326;2023-02-11T08:35:44;9.10;62.00
69677;DHT22;56914;51.058;9.326;2023-02-11T08:36:47;9.20;62.00
69677;DHT22;56914;51.058;9.326;2023-02-11T08:37:52;9.10;62.10
69677;DHT22;56914;51.058;9.326;2023-02-11T08:38:55;9.10;62.20
69677;DHT22;56914;51.058;9.326;2023-02-11T08:40:19;9.10;62.30
69677;DHT22;56914;51.058;9.326;2023-02-11T08:41:22;9.10;63.00
69677;DHT22;56914;51.058;9.326;2023-02-11T08:42:25;9.10;62.40
69677;DHT22;56914;51.058;9.326;2023-02-11T08:43:28;9.10;62.50
69677;DHT22;56914;51.058;9.326;2023-02-11T08:44:30;9.10;62.50
69677;DHT22;56914;51.058;9.326;2023-02-11T08:45:33;9.10;62.60
69677;DHT22;56914;51.058;9.326;2023-02-11T08:46:35;9.10;62.60
69677;DHT22;56914;51.058;9.326;2023-02-11T08:47:39;9.10;62.60
69677;DHT22;56914;51.058;9.326;2023-02-11T08:48:42;9.10;62.60
69677;DHT22;56914;51.058;9.326;2023-02-11T08:49:45;9.20;62.70
69677;DHT22;56914;51.058;9.326;2023-02-11T08:50:47;9.20;62.60
69677;DHT22;56914;51.058;9.326;2023-02-11T08:51:51;9.20;62.60
69677;DHT22;56914;51.058;9.326;2023-02-11T08:52:57;9.20;62.50
69677;DHT22;56914;51.058;9.326;2023-02-11T08:54:00;9.20;62.50
69677;DHT22;56914;51.058;9.326;2023-02-11T08:55:04;9.20;62.60
69677;DHT22;56914;51.058;9.326;2023-02-11T08:56:09;9.20;62.70
69677;DHT22;56914;51.058;9.326;2023-02-11T08:57:14;9.20;62.60
69677;DHT22;56914;51.058;9.326;2023-02-11T08:58:17;9.20;62.70
69677;DHT22;56914;51.058;9.326;2023-02-11T08:59:20;9.20;62.60
69677;DHT22;56914;51.058;9.326;2023-02-11T09:00:23;9.20;62.70
69677;DHT22;56914;51.058;9.326;2023-02-11T09:01:28;9.20;63.20
69677;DHT22;56914;51.058;9.326;2023-02-11T09:02:31;9.20;62.70
69677;DHT22;56914;51.058;9.326;2023-02-11T09:03:34;9.30;62.70
69677;DHT22;56914;51.058;9.326;2023-02-11T09:04:37;9.30;62.70
69677;DHT22;56914;51.058;9.326;2023-02-11T09:05:40;9.30;62.70
69677;DHT22;56914;51.058;9.326;2023-02-11T09:06:44;9.30;62.60
69677;DHT22;56914;51.058;9.326;2023-02-11T09:07:46;9.30;62.60
69677;DHT22;56914;51.058;9.326;2023-02-11T09:08:53;9.30;62.60
69677;DHT22;56914;51.058;9.326;2023-02-11T09:09:56;9.40;62.50
69677;DHT22;56914;51.058;9.326;2023-02-11T09:10:59;9.40;62.40
69677;DHT22;56914;51.058;9.326;2023-02-11T09:12:01;9.40;62.40
69677;DHT22;56914;51.058;9.326;2023-02-11T09:13:05;9.40;62.50
69677;DHT22;56914;51.058;9.326;2023-02-11T09:14:09;9.40;62.40
69677;DHT22;56914;51.058;9.326;2023-02-11T09:15:15;9.40;62.30
69677;DHT22;56914;51.058;9.326;2023-02-11T09:16:19;9.40;62.30
69677;DHT22;56914;51.058;9.326;2023-02-11T09:17:23;9.50;62.30
69677;DHT22;56914;51.058;9.326;2023-02-11T09:18:29;9.50;62.20
69677;DHT22;56914;51.058;9.326;2023-02-11T09:19:32;9.50;62.30
69677;DHT22;56914;51.058;9.326;2023-02-11T09:20:35;9.50;62.30
69677;DHT22;56914;51.058;9.326;2023-02-11T09:21:37;9.50;62.10
69677;DHT22;56914;51.058;9.326;2023-02-11T09:22:40;9.50;62.00
69677;DHT22;56914;51.058;9.326;2023-02-11T09:23:44;9.50;62.00
69677;DHT22;56914;51.058;9.326;2023-02-11T09:24:50;9.50;62.60
69677;DHT22;56914;51.058;9.326;2023-02-11T09:25:53;9.50;62.00
69677;DHT22;56914;51.058;9.326;2023-02-11T09:26:55;9.60;61.90
69677;DHT22;56914;51.058;9.326;2023-02-11T09:27:58;9.60;61.80
69677;DHT22;56914;51.058;9.326;2023-02-11T09:29:03;9.60;61.80
69677;DHT22;56914;51.058;9.326;2023-02-11T09:30:07;9.60;61.70
69677;DHT22;56914;51.058;9.326;2023-02-11T09:31:12;9.60;61.60
69677;DHT22;56914;51.058;9.326;2023-02-11T09:32:16;9.60;61.60
69677;DHT22;56914;51.058;9.326;2023-02-11T09:33:19;9.60;61.50
69677;DHT22;56914;51.058;9.326;2023-02-11T09:34:21;9.60;61.50
69677;DHT22;56914;51.058;9.326;2023-02-11T09:35:24;9.60;61.60
69677;DHT22;56914;51.058;9.326;2023-02-11T09:36:28;9.60;61.60
69677;DHT22;56914;51.058;9.326;2023-02-11T09:37:32;9.60;61.70
69677;DHT22;56914;51.058;9.326;2023-02-11T09:38:38;9.60;61.60
69677;DHT22;56914;51.058;9.326;2023-02-11T09:39:41;9.60;61.50
69677;DHT22;56914;51.058;9.326;2023-02-11T09:40:47;9.60;61.40
69677;DHT22;56914;51.058;9.326;2023-02-11T09:43:42;9.70;61.50
69677;DHT22;56914;51.058;9.326;2023-02-11T09:44:46;9.70;61.50
69677;DHT22;56914;51.058;9.326;2023-02-11T09:45:50;9.70;61.60
69677;DHT22;56914;51.058;9.326;2023-02-11T09:46:59;9.70;61.40
69677;DHT22;56914;51.058;9.326;2023-02-11T09:48:09;9.70;61.50
69677;DHT22;56914;51.058;9.326;2023-02-11T09:49:20;9.70;61.40
69677;DHT22;56914;51.058;9.326;2023-02-11T09:50:28;9.70;61.40
69677;DHT22;56914;51.058;9.326;2023-02-11T09:51:37;9.70;61.40
69677;DHT22;56914;51.058;9.326;2023-02-11T09:52:49;9.70;61.50
69677;DHT22;56914;51.058;9.326;2023-02-11T09:53:59;9.70;61.50
69677;DHT22;56914;51.058;9.326;2023-02-11T09:55:16;9.70;61.50
69677;DHT22;56914;51.058;9.326;2023-02-11T09:56:24;9.70;61.60
69677;DHT22;56914;51.058;9.326;2023-02-11T09:57:31;9.70;61.60
69677;DHT22;56914;51.058;9.326;2023-02-11T09:58:37;9.80;61.80
69677;DHT22;56914;51.058;9.326;2023-02-11T09:59:41;9.80;61.90
69677;DHT22;56914;51.058;9.326;2023-02-11T10:00:49;9.80;61.90
69677;DHT22;56914;51.058;9.326;2023-02-11T10:01:59;9.90;61.90
69677;DHT22;56914;51.058;9.326;2023-02-11T10:03:28;9.90;61.70
69677;DHT22;56914;51.058;9.326;2023-02-11T10:05:20;10.00;61.80
69677;DHT22;56914;51.058;9.326;2023-02-11T10:06:37;10.00;61.70
69677;DHT22;56914;51.058;9.326;2023-02-11T10:07:50;10.10;61.60
69677;DHT22;56914;51.058;9.326;2023-02-11T10:09:03;10.10;61.50
69677;DHT22;56914;51.058;9.326;2023-02-11T10:10:21;10.20;61.60
69677;DHT22;56914;51.058;9.326;2023-02-11T10:11:39;10.20;61.70
69677;DHT22;56914;51.058;9.326;2023-02-11T10:13:06;10.20;61.30
69677;DHT22;56914;51.058;9.326;2023-02-11T10:16:01;10.20;61.10
69677;DHT22;56914;51.058;9.326;2023-02-11T10:17:19;10.20;61.10
69677;DHT22;56914;51.058;9.326;2023-02-11T10:18:51;10.20;61.20
69677;DHT22;56914;51.058;9.326;2023-02-11T10:20:24;10.20;61.30
69677;DHT22;56914;51.058;9.326;2023-02-11T10:21:54;10.20;61.40
69677;DHT22;56914;51.058;9.326;2023-02-11T10:23:08;10.20;61.50
69677;DHT22;56914;51.058;9.326;2023-02-11T10:24:15;10.20;61.60
69677;DHT22;56914;51.058;9.326;2023-02-11T10:25:22;10.20;61.60
69677;DHT22;56914;51.058;9.326;2023-02-11T10:26:31;10.30;61.50
69677;DHT22;56914;51.058;9.326;2023-02-11T10:27:35;10.30;61.30
69677;DHT22;56914;51.058;9.326;2023-02-11T10:28:44;10.30;61.30
69677;DHT22;56914;51.058;9.326;2023-02-11T10:29:52;10.30;61.60
69677;DHT22;56914;51.058;9.326;2023-02-11T10:30:58;10.30;61.60
69677;DHT22;56914;51.058;9.326;2023-02-11T13:22:33;11.60;61.30
69677;DHT22;56914;51.058;9.326;2023-02-11T13:23:56;11.60;61.30
69677;DHT22;56914;51.058;9.326;2023-02-11T13:25:35;11.60;61.30
69677;DHT22;56914;51.058;9.326;2023-02-11T13:27:04;11.60;61.30
69677;DHT22;56914;51.058;9.326;2023-02-11T13:30:19;11.60;61.40
69677;DHT22;56914;51.058;9.326;2023-02-11T13:31:33;11.60;61.50
69677;DHT22;56914;51.058;9.326;2023-02-11T13:33:05;11.60;61.40
69677;DHT22;56914;51.058;9.326;2023-02-11T13:36:24;11.60;61.50
69677;DHT22;56914;51.058;9.326;2023-02-11T13:37:35;11.70;61.40
69677;DHT22;56914;51.058;9.326;2023-02-11T13:38:38;11.60;61.30
69677;DHT22;56914;51.058;9.326;2023-02-11T13:39:56;11.60;61.30
69677;DHT22;56914;51.058;9.326;2023-02-11T13:41:04;11.60;61.40
69677;DHT22;56914;51.058;9.326;2023-02-11T13:42:17;11.60;61.40
69677;DHT22;56914;51.058;9.326;2023-02-11T13:43:24;11.60;61.50
69677;DHT22;56914;51.058;9.326;2023-02-11T13:44:33;11.60;61.50
69677;DHT22;56914;51.058;9.326;2023-02-11T13:45:43;11.60;61.50
69677;DHT22;56914;51.058;9.326;2023-02-11T13:46:54;11.60;61.50
69677;DHT22;56914;51.058;9.326;2023-02-11T13:48:19;11.60;61.50
69677;DHT22;56914;51.058;9.326;2023-02-11T13:49:38;11.60;61.50
69677;DHT22;56914;51.058;9.326;2023-02-11T13:50:56;11.60;61.50
69677;DHT22;56914;51.058;9.326;2023-02-11T13:52:03;11.60;61.50
69677;DHT22;56914;51.058;9.326;2023-02-11T13:53:16;11.60;61.50
69677;DHT22;56914;51.058;9.326;2023-02-11T13:54:29;11.70;61.50
69677;DHT22;56914;51.058;9.326;2023-02-11T13:55:44;11.60;61.50
69677;DHT22;56914;51.058;9.326;2023-02-11T13:58:46;11.70;61.60
69677;DHT22;56914;51.058;9.326;2023-02-11T13:59:55;11.70;61.60
69677;DHT22;56914;51.058;9.326;2023-02-11T14:01:01;11.70;61.60
69677;DHT22;56914;51.058;9.326;2023-02-11T14:02:26;11.70;61.50
69677;DHT22;56914;51.058;9.326;2023-02-11T14:04:05;11.80;61.90
69677;DHT22;56914;51.058;9.326;2023-02-11T14:05:29;11.70;61.60
69677;DHT22;56914;51.058;9.326;2023-02-11T14:11:05;11.80;61.70
69677;DHT22;56914;51.058;9.326;2023-02-11T14:12:37;11.80;61.60
69677;DHT22;56914;51.058;9.326;2023-02-11T14:15:38;11.80;61.50
69677;DHT22;56914;51.058;9.326;2023-02-11T14:18:59;11.80;61.80
69677;DHT22;56914;51.058;9.326;2023-02-11T14:20:40;11.70;61.80